createdAt,value
2023-05-11T00:02:01.101Z,11.67
2023-05-11T00:04:28.219Z,10.90
2023-05-11T00:06:56.191Z,10.30
2023-05-11T00:09:22.788Z,10.50
2023-05-11T00:11:49.900Z,10.20
2023-05-11T00:14:16.944Z,9.53
2023-05-11T00:16:43.983Z,9.63
2023-05-11T00:19:11.027Z,10.40
2023-05-11T00:21:38.075Z,10.07
2023-05-11T00:24:05.318Z,9.90
2023-05-11T00:26:32.339Z,11.30
2023-05-11T00:28:59.375Z,10.63
2023-05-11T00:31:28.748Z,11.00
2023-05-11T00:33:57.376Z,9.80
2023-05-11T00:36:24.467Z,10.03
2023-05-11T00:38:52.746Z,9.37
2023-05-11T00:41:19.846Z,9.43
2023-05-11T00:43:46.890Z,10.10
2023-05-11T00:46:13.999Z,11.23
2023-05-11T00:48:41.105Z,9.57
2023-05-11T00:51:08.008Z,10.47
2023-05-11T00:53:35.142Z,10.40
2023-05-11T00:56:01.769Z,11.50
2023-05-11T00:58:28.913Z,11.17
2023-05-11T01:00:55.826Z,11.10
2023-05-11T01:03:23.124Z,9.43
2023-05-11T01:06:07.663Z,9.83
2023-05-11T01:08:42.715Z,10.73
2023-05-11T01:11:26.091Z,10.60
2023-05-11T01:14:14.746Z,11.47
2023-05-11T01:16:47.239Z,12.00
2023-05-11T01:19:31.033Z,11.50
2023-05-11T01:21:59.047Z,11.37
2023-05-11T01:25:05.536Z,10.90
2023-05-11T01:27:47.961Z,11.37
2023-05-11T01:30:41.641Z,12.13
2023-05-11T01:33:12.239Z,11.43
2023-05-11T01:35:43.229Z,11.40
2023-05-11T01:38:13.904Z,10.73
2023-05-11T01:40:42.933Z,11.10
2023-05-11T01:43:18.718Z,11.40
2023-05-11T01:45:49.731Z,10.83
2023-05-11T01:48:22.514Z,11.33
2023-05-11T01:50:51.063Z,11.67
2023-05-11T01:53:19.834Z,11.70
2023-05-11T01:55:48.578Z,12.33
2023-05-11T01:58:17.959Z,12.23
2023-05-11T02:00:46.112Z,11.73
2023-05-11T02:03:13.988Z,12.50
2023-05-11T02:05:41.595Z,12.07
2023-05-11T02:08:09.678Z,12.67
2023-05-11T02:10:38.714Z,12.20
2023-05-11T02:13:06.335Z,12.67
2023-05-11T02:15:36.250Z,11.93
2023-05-11T02:18:04.388Z,11.40
2023-05-11T02:20:32.816Z,11.67
2023-05-11T02:23:00.974Z,11.87
2023-05-11T02:25:29.618Z,11.43
2023-05-11T02:27:56.307Z,11.63
2023-05-11T02:30:25.162Z,11.23
2023-05-11T02:32:54.559Z,12.30
2023-05-11T02:35:25.243Z,11.60
2023-05-11T02:37:56.506Z,11.37
2023-05-11T02:40:30.412Z,12.00
2023-05-11T02:43:10.379Z,11.93
2023-05-11T02:45:44.483Z,11.77
2023-05-11T02:48:21.333Z,11.47
2023-05-11T02:50:51.453Z,12.77
2023-05-11T02:53:19.918Z,11.63
2023-05-11T02:55:47.422Z,11.63
2023-05-11T02:58:15.183Z,11.50
2023-05-11T03:00:46.443Z,10.33
2023-05-11T03:03:13.812Z,11.60
2023-05-11T03:05:41.014Z,11.37
2023-05-11T03:08:08.188Z,10.67
2023-05-11T03:10:36.179Z,12.07
2023-05-11T03:13:03.756Z,10.43
2023-05-11T03:15:31.090Z,10.23
2023-05-11T03:18:00.402Z,11.17
2023-05-11T03:20:27.909Z,11.53
2023-05-11T03:22:55.859Z,10.00
2023-05-11T03:25:24.032Z,11.13
2023-05-11T03:27:53.309Z,10.50
2023-05-11T03:30:20.790Z,10.43
2023-05-11T03:32:51.272Z,10.67
2023-05-11T03:35:18.540Z,10.90
2023-05-11T03:37:46.474Z,11.33
2023-05-11T03:40:15.676Z,10.80
2023-05-11T03:42:54.301Z,11.43
2023-05-11T03:45:22.867Z,11.07
2023-05-11T03:47:51.190Z,10.90
2023-05-11T03:50:18.723Z,10.80
2023-05-11T03:52:46.244Z,11.17
2023-05-11T03:55:13.432Z,10.10
2023-05-11T03:57:40.723Z,10.27
2023-05-11T04:00:10.166Z,10.43
2023-05-11T04:02:42.067Z,11.57
2023-05-11T04:05:12.341Z,10.93
2023-05-11T04:07:41.102Z,11.00
2023-05-11T04:10:08.339Z,10.30
2023-05-11T04:12:36.095Z,10.17
2023-05-11T04:15:04.415Z,11.97
2023-05-11T04:17:31.527Z,11.97
2023-05-11T04:19:58.645Z,11.17
2023-05-11T04:22:25.673Z,12.33
2023-05-11T04:24:52.708Z,11.43
2023-05-11T04:27:19.743Z,11.17
2023-05-11T04:29:46.929Z,11.13
2023-05-11T04:32:14.157Z,11.33
2023-05-11T04:34:41.438Z,10.43
2023-05-11T04:37:09.819Z,11.57
2023-05-11T04:39:38.496Z,11.40
2023-05-11T04:42:05.774Z,12.67
2023-05-11T04:44:32.566Z,12.30
2023-05-11T04:46:59.685Z,11.70
2023-05-11T04:49:26.930Z,12.40
2023-05-11T04:51:53.994Z,11.57
2023-05-11T04:54:21.156Z,12.63
2023-05-11T04:56:49.967Z,12.50
2023-05-11T04:59:16.692Z,12.17
2023-05-11T05:01:43.710Z,11.83
2023-05-11T05:04:10.758Z,12.33
2023-05-11T05:06:38.793Z,12.17
2023-05-11T05:09:05.820Z,10.80
2023-05-11T05:11:33.002Z,11.23
2023-05-11T05:14:00.116Z,11.77
2023-05-11T05:16:28.662Z,12.47
2023-05-11T05:18:57.251Z,12.70
2023-05-11T05:21:24.859Z,12.07
2023-05-11T05:23:51.894Z,12.67
2023-05-11T05:26:18.545Z,13.13
2023-05-11T05:28:47.279Z,13.33
2023-05-11T05:31:14.539Z,13.67
2023-05-11T05:33:42.727Z,14.40
2023-05-11T05:36:09.849Z,15.00
2023-05-11T05:38:37.849Z,15.03
2023-05-11T05:41:05.306Z,14.93
2023-05-11T05:43:36.228Z,15.80
2023-05-11T05:46:03.533Z,16.07
2023-05-11T05:48:30.632Z,15.87
2023-05-11T05:50:57.707Z,16.27
2023-05-11T05:53:24.750Z,15.67
2023-05-11T05:55:51.792Z,14.80
2023-05-11T05:58:19.364Z,15.43
2023-05-11T06:00:46.654Z,14.90
2023-05-11T06:03:13.802Z,14.37
2023-05-11T06:05:41.588Z,16.63
2023-05-11T06:08:11.022Z,15.43
2023-05-11T06:10:38.899Z,14.90
2023-05-11T06:13:06.252Z,16.27
2023-05-11T06:15:33.559Z,16.87
2023-05-11T06:18:08.080Z,17.03
2023-05-11T06:20:35.762Z,17.30
2023-05-11T06:23:05.032Z,17.37
2023-05-11T06:25:36.071Z,17.83
2023-05-11T06:28:03.460Z,19.30
2023-05-11T06:30:31.319Z,18.30
2023-05-11T06:32:59.122Z,19.63
2023-05-11T06:35:26.355Z,18.67
2023-05-11T06:37:53.407Z,20.30
2023-05-11T06:40:20.797Z,18.30
2023-05-11T06:42:47.957Z,19.97
2023-05-11T06:45:15.397Z,19.93
2023-05-11T06:47:44.115Z,20.43
2023-05-11T06:50:11.355Z,21.40
2023-05-11T06:52:38.382Z,21.73
2023-05-11T06:55:05.716Z,20.70
2023-05-11T06:57:32.795Z,21.23
2023-05-11T06:59:59.864Z,19.90
2023-05-11T07:02:27.002Z,19.13
2023-05-11T07:04:54.108Z,17.20
2023-05-11T07:07:22.622Z,16.90
2023-05-11T07:09:49.667Z,17.03
2023-05-11T07:12:16.884Z,16.27
2023-05-11T07:14:43.960Z,16.73
2023-05-11T07:17:11.176Z,16.73
2023-05-11T07:19:38.301Z,16.50
2023-05-11T07:22:05.741Z,15.33
2023-05-11T07:24:32.803Z,15.20
2023-05-11T07:27:00.705Z,15.50
2023-05-11T07:29:27.756Z,15.90
2023-05-11T07:31:54.372Z,15.73
2023-05-11T07:34:21.416Z,16.80
2023-05-11T07:36:48.587Z,15.10
2023-05-11T07:39:16.953Z,16.57
2023-05-11T07:41:44.193Z,15.83
2023-05-11T07:44:11.523Z,15.73
2023-05-11T07:46:38.616Z,16.40
2023-05-11T07:49:15.836Z,15.57
2023-05-11T07:51:47.749Z,16.20
2023-05-11T07:54:14.819Z,17.17
2023-05-11T07:56:42.099Z,17.50
2023-05-11T07:59:09.255Z,16.07
2023-05-11T08:01:36.979Z,16.53
2023-05-11T08:04:04.057Z,16.97
2023-05-11T08:06:31.100Z,17.33
2023-05-11T08:08:58.152Z,17.83
2023-05-11T08:11:25.847Z,16.30
2023-05-11T08:13:52.898Z,16.10
2023-05-11T08:16:19.983Z,15.23
2023-05-11T08:18:47.598Z,15.93
2023-05-11T08:21:14.971Z,15.87
2023-05-11T08:23:43.905Z,16.60
2023-05-11T08:26:12.140Z,15.20
2023-05-11T08:28:39.175Z,15.80
2023-05-11T08:31:06.282Z,16.73
2023-05-11T08:33:38.293Z,18.07
2023-05-11T08:36:06.711Z,17.37
2023-05-11T08:38:34.737Z,16.07
2023-05-11T08:41:02.399Z,16.43
2023-05-11T08:43:30.064Z,17.53
2023-05-11T08:46:01.163Z,17.50
2023-05-11T08:48:29.009Z,17.87
2023-05-11T08:50:55.794Z,17.60
2023-05-11T08:53:22.838Z,18.47
2023-05-11T08:55:51.475Z,18.27
2023-05-11T08:58:21.681Z,17.43
2023-05-11T09:00:51.918Z,17.17
2023-05-11T09:03:19.470Z,17.23
2023-05-11T09:05:47.248Z,18.13
2023-05-11T09:08:15.291Z,17.17
2023-05-11T09:10:43.601Z,17.50
2023-05-11T09:13:11.197Z,18.33
2023-05-11T09:15:38.539Z,17.47
2023-05-11T09:18:05.966Z,15.70
2023-05-11T09:20:34.200Z,16.87
2023-05-11T09:23:01.248Z,16.27
2023-05-11T09:25:32.992Z,16.27
2023-05-11T09:28:00.303Z,16.33
2023-05-11T09:30:27.647Z,17.07
2023-05-11T09:33:03.586Z,17.63
2023-05-11T09:35:32.013Z,15.77
2023-05-11T09:38:10.088Z,17.27
2023-05-11T09:40:39.084Z,15.53
2023-05-11T09:43:17.385Z,16.83
2023-05-11T09:45:46.302Z,15.17
2023-05-11T09:48:20.405Z,16.07
2023-05-11T09:50:48.745Z,15.90
2023-05-11T09:53:16.814Z,15.17
2023-05-11T09:55:53.886Z,15.10
2023-05-11T09:58:20.942Z,14.50
2023-05-11T10:00:53.974Z,14.67
2023-05-11T10:03:21.421Z,13.77
2023-05-11T10:06:00.324Z,13.80
2023-05-11T10:08:34.189Z,13.63
2023-05-11T10:11:02.307Z,14.77
2023-05-11T10:13:30.650Z,15.07
2023-05-11T10:15:59.058Z,14.83
2023-05-11T10:18:26.518Z,13.07
2023-05-11T10:20:54.332Z,13.60
2023-05-11T10:23:21.464Z,13.10
2023-05-11T10:25:48.843Z,12.53
2023-05-11T10:28:16.117Z,13.27
2023-05-11T10:30:44.177Z,12.03
2023-05-11T10:33:11.226Z,13.10
2023-05-11T10:35:39.080Z,13.27
2023-05-11T10:38:08.036Z,12.47
2023-05-11T10:40:37.730Z,13.97
2023-05-11T10:43:18.233Z,13.10
2023-05-11T10:46:13.505Z,14.03
2023-05-11T10:49:14.376Z,13.60
2023-05-11T10:51:49.800Z,13.53
2023-05-11T10:54:19.453Z,14.27
2023-05-11T10:56:57.909Z,14.43
2023-05-11T11:00:07.214Z,13.70
2023-05-11T11:02:34.653Z,13.60
2023-05-11T11:05:05.616Z,13.63
2023-05-11T11:07:32.661Z,12.43
2023-05-11T11:10:01.441Z,14.17
2023-05-11T11:12:29.601Z,13.83
2023-05-11T11:15:09.323Z,13.80
2023-05-11T11:17:36.716Z,14.27
2023-05-11T11:20:10.053Z,15.27
2023-05-11T11:22:41.544Z,15.27
2023-05-11T11:25:09.773Z,13.80
2023-05-11T11:27:45.309Z,15.60
2023-05-11T11:30:36.006Z,13.80
2023-05-11T11:33:08.720Z,13.23
2023-05-11T11:35:41.508Z,11.70
2023-05-11T11:38:13.405Z,11.13
2023-05-11T11:40:50.497Z,10.60
2023-05-11T11:43:26.920Z,7.90
2023-05-11T11:45:53.974Z,7.33
2023-05-11T11:48:23.007Z,6.73
2023-05-11T11:51:01.361Z,5.07
2023-05-11T11:53:46.152Z,4.23
2023-05-11T11:56:15.902Z,4.63
2023-05-11T11:58:46.148Z,4.03
2023-05-11T12:01:14.393Z,4.10
2023-05-11T12:03:43.329Z,5.13
2023-05-11T12:06:12.006Z,4.53
2023-05-11T12:08:40.447Z,5.10
2023-05-11T12:11:08.306Z,5.23
2023-05-11T12:13:35.656Z,5.00
2023-05-11T12:16:12.161Z,3.53
2023-05-11T12:18:39.773Z,3.20
2023-05-11T12:21:06.908Z,3.00
2023-05-11T12:23:33.559Z,2.87
2023-05-11T12:26:04.710Z,3.20
2023-05-11T12:28:31.815Z,2.17
2023-05-11T12:31:00.483Z,3.10
2023-05-11T12:33:28.197Z,2.17
2023-05-11T12:35:57.196Z,1.60
2023-05-11T12:38:24.267Z,1.93
2023-05-11T12:40:53.015Z,2.10
2023-05-11T12:43:21.545Z,2.20
2023-05-11T12:45:49.254Z,2.57
2023-05-11T12:48:16.509Z,2.57
2023-05-11T12:50:45.533Z,2.33
2023-05-11T12:53:16.957Z,2.47
2023-05-11T12:55:43.837Z,2.30
2023-05-11T12:58:13.514Z,2.40
2023-05-11T13:00:57.962Z,2.73
2023-05-11T13:03:27.155Z,2.43
2023-05-11T13:06:11.235Z,3.13
2023-05-11T13:08:45.694Z,2.60
2023-05-11T13:11:26.801Z,2.77
2023-05-11T13:13:55.567Z,2.70
2023-05-11T13:16:29.761Z,2.63
2023-05-11T13:19:00.657Z,2.47
2023-05-11T13:21:29.727Z,2.40
2023-05-11T13:23:56.460Z,2.47
2023-05-11T13:26:24.120Z,2.60
2023-05-11T13:29:05.762Z,2.43
2023-05-11T13:31:43.092Z,2.53
2023-05-11T13:34:10.214Z,3.00
2023-05-11T13:36:36.819Z,2.87
2023-05-11T13:39:03.994Z,2.80
2023-05-11T13:41:31.465Z,3.33
2023-05-11T13:43:58.537Z,2.20
2023-05-11T13:46:25.631Z,2.07
2023-05-11T13:48:54.666Z,1.83
2023-05-11T13:51:22.013Z,1.60
2023-05-11T13:53:49.140Z,1.70
2023-05-11T13:56:19.273Z,1.67
2023-05-11T13:58:46.296Z,1.83
2023-05-11T14:01:13.402Z,1.87
2023-05-11T14:03:40.642Z,1.80
2023-05-11T14:06:07.689Z,1.73
2023-05-11T14:08:34.733Z,2.03
2023-05-11T14:11:01.802Z,2.40
2023-05-11T14:13:28.825Z,2.23
2023-05-11T14:15:55.528Z,2.17
2023-05-11T14:18:24.750Z,2.30
2023-05-11T14:20:52.038Z,2.60
2023-05-11T14:23:19.054Z,2.07
2023-05-11T14:25:46.075Z,2.03
2023-05-11T14:28:13.131Z,2.13
2023-05-11T14:30:40.363Z,2.00
2023-05-11T14:33:07.444Z,2.50
2023-05-11T14:35:34.550Z,2.57
2023-05-11T14:38:02.786Z,3.13
2023-05-11T14:40:30.111Z,2.63
2023-05-11T14:42:57.260Z,2.73
2023-05-11T14:45:24.830Z,2.30
2023-05-11T14:47:51.970Z,2.60
2023-05-11T14:50:19.108Z,3.33
2023-05-11T14:52:46.917Z,3.00
2023-05-11T14:55:13.989Z,2.57
2023-05-11T14:57:41.182Z,4.03
2023-05-11T15:00:08.546Z,3.47
2023-05-11T15:02:35.237Z,3.07
2023-05-11T15:05:02.349Z,3.67
2023-05-11T15:07:29.358Z,3.50
2023-05-11T15:09:56.724Z,3.63
2023-05-11T15:12:24.256Z,3.40
2023-05-11T15:14:51.812Z,4.00
2023-05-11T15:17:18.834Z,4.03
2023-05-11T15:19:45.865Z,3.97
2023-05-11T15:22:12.705Z,4.17
2023-05-11T15:24:39.752Z,4.67
2023-05-11T15:27:06.884Z,4.63
2023-05-11T15:29:34.048Z,4.47
2023-05-11T15:32:01.187Z,5.00
2023-05-11T15:34:28.222Z,4.63
2023-05-11T15:36:55.276Z,5.03
2023-05-11T15:39:22.276Z,4.70
2023-05-11T15:41:49.453Z,5.20
2023-05-11T15:44:16.343Z,4.37
2023-05-11T15:46:43.403Z,4.77
2023-05-11T15:49:10.536Z,2.87
2023-05-11T15:51:37.582Z,2.93
2023-05-11T15:54:04.713Z,3.20
2023-05-11T15:56:31.831Z,3.07
2023-05-11T15:58:58.912Z,3.10
2023-05-11T16:01:26.137Z,3.27
2023-05-11T16:03:53.184Z,3.37
2023-05-11T16:06:20.562Z,3.40
2023-05-11T16:08:47.803Z,3.77
2023-05-11T16:11:15.051Z,3.07
2023-05-11T16:13:42.089Z,3.40
2023-05-11T16:16:09.133Z,3.77
2023-05-11T16:18:38.343Z,3.30
2023-05-11T16:21:05.941Z,3.10
2023-05-11T16:23:32.972Z,3.80
2023-05-11T16:26:00.740Z,3.60
2023-05-11T16:28:27.783Z,4.50
2023-05-11T16:30:57.202Z,4.03
2023-05-11T16:33:26.273Z,4.00
2023-05-11T16:35:53.719Z,4.20
2023-05-11T16:38:22.210Z,3.90
2023-05-11T16:40:49.711Z,3.83
2023-05-11T16:43:16.848Z,3.77
2023-05-11T16:45:44.302Z,3.87
2023-05-11T16:48:11.398Z,3.70
2023-05-11T16:50:38.484Z,3.47
2023-05-11T16:53:05.743Z,3.93
2023-05-11T16:55:33.134Z,4.07
2023-05-11T16:58:00.456Z,3.30
2023-05-11T17:00:28.186Z,3.43
2023-05-11T17:02:55.366Z,3.10
2023-05-11T17:05:23.026Z,3.00
2023-05-11T17:07:50.097Z,3.53
2023-05-11T17:10:17.540Z,3.30
2023-05-11T17:12:44.427Z,3.07
2023-05-11T17:15:11.799Z,3.20
2023-05-11T17:17:39.370Z,3.20
2023-05-11T17:20:07.656Z,2.67
2023-05-11T17:22:35.161Z,2.90
2023-05-11T17:25:05.474Z,3.17
2023-05-11T17:27:32.653Z,2.90
2023-05-11T17:29:59.723Z,2.60
2023-05-11T17:32:27.207Z,2.40
2023-05-11T17:34:54.593Z,2.03
2023-05-11T17:37:31.224Z,2.20
2023-05-11T17:39:59.990Z,2.20
2023-05-11T17:42:27.184Z,2.10
2023-05-11T17:44:54.804Z,1.83
2023-05-11T17:47:22.246Z,1.87
2023-05-11T17:49:49.349Z,1.93
2023-05-11T17:52:16.030Z,2.43
2023-05-11T17:54:43.076Z,2.57
2023-05-11T17:57:10.444Z,2.30
2023-05-11T17:59:37.485Z,2.97
2023-05-11T18:02:04.626Z,3.07
2023-05-11T18:04:31.686Z,3.60
2023-05-11T18:06:59.093Z,3.07
2023-05-11T18:09:26.159Z,3.03
2023-05-11T18:11:52.739Z,3.53
2023-05-11T18:14:19.766Z,3.50
2023-05-11T18:16:49.176Z,3.50
2023-05-11T18:19:16.368Z,4.23
2023-05-11T18:21:43.519Z,5.00
2023-05-11T18:24:10.657Z,4.73
2023-05-11T18:26:37.899Z,5.03
2023-05-11T18:29:04.972Z,5.27
2023-05-11T18:31:32.232Z,4.90
2023-05-11T18:33:59.286Z,7.93
2023-05-11T18:36:27.960Z,5.53
2023-05-11T18:38:54.534Z,6.30
2023-05-11T18:41:22.560Z,5.97
2023-05-11T18:43:49.610Z,6.27
2023-05-11T18:46:16.670Z,6.00
2023-05-11T18:48:44.464Z,7.03
2023-05-11T18:51:11.609Z,5.70
2023-05-11T18:53:38.401Z,7.07
2023-05-11T18:56:05.587Z,7.33
2023-05-11T18:58:32.672Z,7.20
2023-05-11T19:00:59.711Z,7.20
2023-05-11T19:03:26.489Z,7.10
2023-05-11T19:05:53.642Z,7.57
2023-05-11T19:08:20.823Z,6.83
2023-05-11T19:10:48.334Z,7.10
2023-05-11T19:13:15.444Z,7.03
2023-05-11T19:15:42.553Z,6.23
2023-05-11T19:18:09.699Z,7.20
2023-05-11T19:20:38.564Z,6.43
2023-05-11T19:23:06.197Z,7.37
2023-05-11T19:25:33.227Z,6.63
2023-05-11T19:28:00.450Z,5.77
2023-05-11T19:30:27.560Z,5.77
2023-05-11T19:32:54.680Z,5.03
2023-05-11T19:35:21.814Z,4.57
2023-05-11T19:37:48.514Z,4.30
2023-05-11T19:40:44.434Z,4.47
2023-05-11T19:43:08.069Z,4.93
2023-05-11T19:45:36.214Z,4.93
2023-05-11T19:48:03.193Z,4.73
2023-05-11T19:50:29.883Z,5.00
2023-05-11T19:52:57.457Z,4.60
2023-05-11T19:55:24.575Z,5.07
2023-05-11T19:57:51.863Z,4.87
2023-05-11T20:00:20.301Z,5.27
2023-05-11T20:02:47.665Z,5.07
2023-05-11T20:05:14.825Z,5.43
2023-05-11T20:07:41.915Z,5.70
2023-05-11T20:10:09.223Z,5.70
2023-05-11T20:12:38.029Z,6.03
2023-05-11T20:15:06.351Z,6.50
2023-05-11T20:17:34.676Z,7.13
2023-05-11T20:20:02.045Z,6.07
2023-05-11T20:22:29.222Z,7.40
2023-05-11T20:24:56.853Z,6.50
2023-05-11T20:27:24.384Z,7.50
2023-05-11T20:29:51.013Z,6.70
2023-05-11T20:32:18.468Z,7.03
2023-05-11T20:34:45.155Z,7.80
2023-05-11T20:37:12.607Z,6.63
2023-05-11T20:39:39.651Z,7.30
2023-05-11T20:42:06.781Z,7.57
2023-05-11T20:44:33.950Z,7.80
2023-05-11T20:47:00.974Z,7.47
2023-05-11T20:49:38.051Z,8.07
2023-05-11T20:52:05.801Z,8.40
2023-05-11T20:54:34.620Z,8.03
2023-05-11T20:57:02.277Z,8.53
2023-05-11T21:02:00.314Z,9.10
2023-05-11T21:04:29.697Z,8.77
2023-05-11T21:06:56.725Z,8.57
2023-05-11T21:09:25.118Z,8.73
2023-05-11T21:11:52.173Z,8.80
2023-05-11T21:14:19.203Z,8.90
2023-05-11T21:16:46.139Z,8.97
2023-05-11T21:19:15.756Z,9.60
2023-05-11T21:21:43.000Z,8.83
2023-05-11T21:24:10.009Z,9.70
2023-05-11T21:26:36.632Z,9.03
2023-05-11T21:29:03.701Z,9.87
2023-05-11T21:31:30.310Z,9.47
2023-05-11T21:33:57.667Z,9.90
2023-05-11T21:36:24.784Z,9.67
2023-05-11T21:38:51.860Z,9.33
2023-05-11T21:41:18.904Z,9.57
2023-05-11T21:43:45.970Z,8.53
2023-05-11T21:46:13.132Z,9.17
2023-05-11T21:48:40.181Z,8.80
2023-05-11T21:51:06.752Z,9.03
2023-05-11T21:53:33.825Z,9.47
2023-05-11T21:56:00.414Z,10.03
2023-05-11T21:58:27.478Z,9.53
2023-05-11T22:00:56.700Z,9.17
2023-05-11T22:03:24.070Z,8.87
2023-05-11T22:05:51.262Z,9.30
2023-05-11T22:08:18.322Z,9.17
2023-05-11T22:10:45.356Z,8.57
2023-05-11T22:13:12.420Z,9.07
2023-05-11T22:15:39.455Z,9.90
2023-05-11T22:18:06.554Z,9.77
2023-05-11T22:20:33.677Z,9.80
2023-05-11T22:23:00.698Z,8.30
2023-05-11T22:25:28.012Z,9.47
2023-05-11T22:27:55.055Z,9.50
2023-05-11T22:30:21.904Z,13.63
2023-05-11T22:32:49.237Z,9.93
2023-05-11T22:35:16.632Z,15.60
2023-05-11T22:37:43.786Z,8.80
2023-05-11T22:40:10.860Z,11.63
2023-05-11T22:42:37.960Z,8.13
2023-05-11T22:45:05.067Z,8.50
2023-05-11T22:47:32.301Z,8.70
2023-05-11T22:50:00.344Z,8.87
2023-05-11T22:52:27.382Z,9.20
2023-05-11T22:54:55.008Z,8.40
2023-05-11T22:57:23.908Z,8.30
2023-05-11T22:59:51.083Z,7.63
2023-05-11T23:02:18.232Z,8.97
2023-05-11T23:04:50.225Z,9.40
2023-05-11T23:07:17.255Z,16.17
2023-05-11T23:09:44.287Z,15.17
2023-05-11T23:12:11.930Z,10.93
2023-05-11T23:14:38.990Z,14.33
2023-05-11T23:17:06.056Z,10.20
2023-05-11T23:19:33.185Z,11.53
2023-05-11T23:22:00.504Z,11.47
2023-05-11T23:24:28.833Z,13.30
2023-05-11T23:26:55.965Z,7.20
2023-05-11T23:29:23.096Z,7.80
2023-05-11T23:31:51.000Z,6.50
2023-05-11T23:34:18.784Z,7.10
2023-05-11T23:36:46.540Z,7.17
2023-05-11T23:39:13.700Z,7.23
2023-05-11T23:41:40.879Z,7.53
2023-05-11T23:44:07.940Z,7.53
2023-05-11T23:46:35.877Z,7.33
2023-05-11T23:49:02.628Z,7.33
2023-05-11T23:51:29.692Z,6.60
2023-05-11T23:53:56.310Z,5.43
2023-05-11T23:56:23.388Z,7.70
2023-05-11T23:58:50.616Z,7.20
